Time;durP1;ratioP1;P1;durP2;ratioP2;P2;SDS_P1;SDS_P2;PMS_P1;PMS_P2;Temp;Humidity;BMP_temperature;BMP_pressure;BME280_temperature;BME280_humidity;BME280_pressure;Samples;Min_cycle;Max_cycle;Signal;HPM_P1;HPM_P2
2022/08/03 00:00:07;;;;;;;12.88;5.07;;;19.80;99.90;;;;;;4972648;28;20053;-62
2022/08/03 00:02:33;;;;;;;12.55;4.97;;;19.80;99.90;;;;;;4956112;28;20058;-60
2022/08/03 00:04:58;;;;;;;13.05;5.07;;;19.80;99.90;;;;;;4973068;28;20058;-61
2022/08/03 00:07:25;;;;;;;8.52;4.95;;;19.80;99.90;;;;;;4973006;28;20035;-60
2022/08/03 00:09:53;;;;;;;10.90;5.28;;;20.50;99.90;;;;;;4956068;28;20047;-62
2022/08/03 00:12:22;;;;;;;13.82;5.30;;;19.60;99.90;;;;;;4972652;28;20506;-61
2022/08/03 00:14:47;;;;;;;10.90;5.20;;;19.50;99.90;;;;;;4973384;28;20039;-61
2022/08/03 00:17:13;;;;;;;12.35;5.20;;;19.70;99.90;;;;;;4939107;28;20038;-61
2022/08/03 00:19:41;;;;;;;10.77;5.30;;;19.60;99.90;;;;;;4973202;28;20376;-61
2022/08/03 00:22:07;;;;;;;14.20;5.80;;;19.60;99.90;;;;;;4955341;28;20058;-62
2022/08/03 00:24:35;;;;;;;14.90;5.95;;;19.50;99.90;;;;;;4973078;28;20038;-61
2022/08/03 00:27:00;;;;;;;12.10;5.65;;;19.50;99.90;;;;;;4972695;28;20042;-60
2022/08/03 00:29:26;;;;;;;9.95;5.18;;;19.40;99.90;;;;;;4972726;28;20046;-60
2022/08/03 00:31:52;;;;;;;18.05;5.70;;;19.40;99.90;;;;;;4972437;28;20041;-61
2022/08/03 00:34:18;;;;;;;11.18;5.70;;;19.50;99.90;;;;;;4972680;28;20114;-62
2022/08/03 00:36:43;;;;;;;13.75;5.10;;;19.40;99.90;;;;;;4972462;28;20030;-61
2022/08/03 00:39:09;;;;;;;13.55;5.68;;;19.40;99.90;;;;;;4954709;28;20054;-61
2022/08/03 00:41:34;;;;;;;14.32;6.03;;;19.30;99.90;;;;;;4972635;28;20443;-61
2022/08/03 00:44:00;;;;;;;14.00;5.97;;;19.30;99.90;;;;;;4972082;28;20046;-61
2022/08/03 00:46:26;;;;;;;19.75;5.75;;;18.10;99.90;;;;;;4955154;28;20034;-61
2022/08/03 00:48:52;;;;;;;16.88;6.00;;;19.40;99.90;;;;;;4972172;28;20097;-61
2022/08/03 00:51:20;;;;;;;14.43;5.90;;;19.10;99.90;;;;;;4972250;28;20388;-61
2022/08/03 00:53:48;;;;;;;11.93;5.78;;;19.20;99.90;;;;;;4972199;28;20039;-61
2022/08/03 00:56:15;;;;;;;15.05;5.70;;;19.00;99.90;;;;;;4954952;28;20039;-61
2022/08/03 00:58:44;;;;;;;13.63;6.35;;;19.10;99.90;;;;;;4972187;28;20039;-61
2022/08/03 01:01:11;;;;;;;16.65;7.25;;;19.00;99.90;;;;;;4969724;28;20507;-62
2022/08/03 01:03:36;;;;;;;13.15;6.25;;;19.50;99.90;;;;;;4965463;28;20078;-61
2022/08/03 01:06:17;;;;;;;14.43;6.20;;;19.00;99.90;;;;;;4958495;28;20046;-61
2022/08/03 01:09:01;;;;;;;10.43;6.57;;;19.00;99.90;;;;;;4970706;28;20492;-61
2022/08/03 01:11:58;;;;;;;16.35;6.95;;;19.00;99.90;;;;;;4956638;29;20047;-62
2022/08/03 01:14:31;;;;;;;19.65;6.65;;;19.10;99.90;;;;;;4971155;28;20102;-61
2022/08/03 01:17:22;;;;;;;14.35;6.00;;;18.90;99.90;;;;;;4956506;29;20043;-61
2022/08/03 01:20:08;;;;;;;15.15;6.55;;;18.90;99.90;;;;;;4956134;29;20074;-60
2022/08/03 01:23:02;;;;;;;14.02;5.70;;;18.90;99.90;;;;;;4956257;29;20075;-61
2022/08/03 01:25:46;;;;;;;11.48;5.68;;;18.90;99.90;;;;;;4956324;29;20126;-61
2022/08/03 01:28:27;;;;;;;14.55;5.97;;;18.80;99.90;;;;;;4956542;29;20050;-61
2022/08/03 01:30:57;;;;;;;18.23;5.60;;;18.90;99.90;;;;;;4956128;29;20118;-61
2022/08/03 01:33:40;;;;;;;14.75;5.75;;;18.90;99.90;;;;;;4970956;28;20109;-61
2022/08/03 01:36:14;;;;;;;14.75;5.60;;;18.90;99.90;;;;;;4954668;29;20035;-61
2022/08/03 01:39:03;;;;;;;13.13;5.20;;;18.90;99.90;;;;;;4956230;29;20050;-61
2022/08/03 01:41:43;;;;;;;14.40;5.43;;;18.90;99.90;;;;;;4955916;29;20436;-61
2022/08/03 01:44:11;;;;;;;12.15;4.90;;;18.80;99.90;;;;;;4955926;29;20058;-61
2022/08/03 01:46:39;;;;;;;12.65;5.53;;;18.80;99.90;;;;;;4955679;29;20047;-61
2022/08/03 01:49:09;;;;;;;14.02;5.00;;;18.80;99.90;;;;;;4938285;29;20043;-61
2022/08/03 01:51:40;;;;;;;10.95;5.50;;;18.80;99.90;;;;;;4954386;29;20050;-61
2022/08/03 01:54:08;;;;;;;13.27;5.18;;;18.80;99.90;;;;;;4954765;29;20039;-61
2022/08/03 01:56:36;;;;;;;11.85;5.32;;;18.80;99.90;;;;;;4955746;29;20039;-61
2022/08/03 01:59:04;;;;;;;12.25;5.13;;;18.70;99.90;;;;;;4954169;29;20118;-61
2022/08/03 02:01:30;;;;;;;12.32;5.05;;;18.70;99.90;;;;;;4955176;29;20051;-61
2022/08/03 02:03:58;;;;;;;12.32;5.10;;;18.60;99.90;;;;;;4955615;29;20189;-61
2022/08/03 02:06:25;;;;;;;9.13;4.88;;;18.60;99.90;;;;;;4955728;29;20074;-61
2022/08/03 02:08:52;;;;;;;10.65;4.50;;;18.60;99.90;;;;;;4955219;29;20436;-61
2022/08/03 02:11:18;;;;;;;10.57;4.60;;;18.60;99.90;;;;;;4955250;29;20050;-61
2022/08/03 02:13:45;;;;;;;8.57;4.25;;;18.50;99.90;;;;;;4955299;29;20031;-61
2022/08/03 02:16:13;;;;;;;12.38;4.35;;;18.40;99.90;;;;;;4954629;28;20039;-61
2022/08/03 02:18:40;;;;;;;11.20;4.30;;;18.40;99.90;;;;;;4954050;29;20475;-61
2022/08/03 02:21:09;;;;;;;11.23;4.20;;;18.30;99.90;;;;;;4955146;29;20047;-61
2022/08/03 02:23:36;;;;;;;12.10;4.43;;;18.30;99.90;;;;;;4955134;29;20040;-60
2022/08/03 02:26:04;;;;;;;10.30;4.50;;;18.30;99.90;;;;;;4955179;29;20109;-61
2022/08/03 02:28:41;;;;;;;14.70;4.43;;;18.20;99.90;;;;;;4937944;29;20050;-61
2022/08/03 02:31:18;;;;;;;9.85;4.65;;;18.20;99.90;;;;;;4955139;29;20491;-61
2022/08/03 02:33:54;;;;;;;6.80;4.10;;;18.10;99.90;;;;;;4955014;29;20085;-61
2022/08/03 02:36:24;;;;;;;11.85;4.60;;;17.90;99.90;;;;;;4955045;29;20031;-61
2022/08/03 02:38:55;;;;;;;13.65;4.80;;;18.00;99.90;;;;;;4954820;29;20047;-61
2022/08/03 02:41:30;;;;;;;12.23;4.25;;;17.90;99.90;;;;;;4954774;29;20039;-61
2022/08/03 02:43:59;;;;;;;10.70;5.18;;;17.80;99.90;;;;;;4954900;29;20123;-60
2022/08/03 02:46:32;;;;;;;10.63;4.63;;;17.90;99.90;;;;;;4954361;29;20456;-60
2022/08/03 02:49:01;;;;;;;11.43;4.88;;;17.80;99.90;;;;;;4954352;29;20521;-60
2022/08/03 02:51:29;;;;;;;13.07;5.55;;;17.80;99.90;;;;;;4954699;29;20453;-61
2022/08/03 02:53:59;;;;;;;12.82;5.50;;;17.80;99.90;;;;;;4954433;29;20039;-61
2022/08/03 02:56:27;;;;;;;11.15;5.45;;;17.90;99.90;;;;;;4954463;29;20467;-61
2022/08/03 02:58:53;;;;;;;13.15;5.28;;;18.00;99.90;;;;;;4954294;29;20480;-60
2022/08/03 03:01:21;;;;;;;12.00;4.95;;;18.00;99.90;;;;;;4953148;29;20052;-60
2022/08/03 03:03:50;;;;;;;11.07;4.28;;;17.90;99.90;;;;;;4954393;29;20066;-61
2022/08/03 03:06:17;;;;;;;13.32;4.68;;;18.00;99.90;;;;;;4953175;29;20043;-61
2022/08/03 03:08:45;;;;;;;12.27;4.40;;;17.90;99.90;;;;;;4954167;29;20047;-61
2022/08/03 03:11:14;;;;;;;13.57;5.00;;;18.00;99.90;;;;;;4936944;29;20047;-61
2022/08/03 03:13:46;;;;;;;14.77;4.88;;;17.90;99.90;;;;;;4954381;29;20043;-61
2022/08/03 03:16:14;;;;;;;13.07;4.50;;;17.90;99.90;;;;;;4954312;29;20075;-61
2022/08/03 03:18:42;;;;;;;8.98;4.45;;;18.00;99.90;;;;;;4953863;29;20047;-61
2022/08/03 03:21:08;;;;;;;13.25;3.90;;;18.10;99.90;;;;;;4954036;29;20043;-61
2022/08/03 03:23:37;;;;;;;17.42;4.53;;;17.40;99.90;;;;;;4954033;29;20043;-61
2022/08/03 03:26:03;;;;;;;11.73;3.92;;;17.90;99.90;;;;;;4953379;28;20071;-60
2022/08/03 03:28:30;;;;;;;9.07;3.78;;;18.00;99.90;;;;;;4953475;29;20043;-60
2022/08/03 03:30:56;;;;;;;14.65;4.00;;;18.00;99.90;;;;;;4954012;29;20043;-60
2022/08/03 03:33:22;;;;;;;15.55;4.50;;;18.00;99.90;;;;;;4953992;29;20122;-61
2022/08/03 03:35:49;;;;;;;13.75;3.85;;;18.00;99.90;;;;;;4953719;29;20079;-61
2022/08/03 03:38:14;;;;;;;11.95;4.30;;;18.00;99.90;;;;;;4953760;29;20046;-62
2022/08/03 03:40:40;;;;;;;19.77;4.20;;;18.00;99.90;;;;;;4953675;29;20043;-62
2022/08/03 03:43:07;;;;;;;12.68;4.00;;;18.00;99.90;;;;;;4953657;29;20492;-62
2022/08/03 03:45:34;;;;;;;9.35;3.63;;;18.10;99.90;;;;;;4953731;29;20043;-62
2022/08/03 03:48:02;;;;;;;16.70;3.80;;;18.10;99.90;;;;;;4953735;29;20039;-62
2022/08/03 03:50:30;;;;;;;10.65;3.95;;;17.90;99.90;;;;;;4953540;29;20054;-61
2022/08/03 03:52:57;;;;;;;14.73;3.60;;;18.10;99.90;;;;;;4953908;29;20049;-60
2022/08/03 03:55:23;;;;;;;15.35;3.83;;;18.50;99.90;;;;;;4953614;29;20053;-61
2022/08/03 03:57:49;;;;;;;11.85;3.50;;;18.10;99.90;;;;;;4953626;29;20386;-60
2022/08/03 04:00:17;;;;;;;9.13;3.65;;;18.20;99.90;;;;;;4953725;29;20480;-61
2022/08/03 04:02:44;;;;;;;12.73;3.83;;;18.10;99.90;;;;;;4953143;29;20059;-61
2022/08/03 04:11:14;;;;;;;9.38;3.22;;;18.10;99.90;;;;;;4953126;29;20083;-61
2022/08/03 04:13:51;;;;;;;10.70;3.47;;;17.90;99.90;;;;;;4953541;29;20324;-61
2022/08/03 04:16:21;;;;;;;13.63;3.90;;;18.10;99.90;;;;;;4953375;29;20035;-61
2022/08/03 04:18:51;;;;;;;12.25;4.40;;;18.10;99.90;;;;;;4953144;29;20047;-61
2022/08/03 04:21:19;;;;;;;10.60;4.25;;;18.10;99.90;;;;;;4953756;29;20110;-61
2022/08/03 04:23:48;;;;;;;12.45;4.65;;;17.40;99.90;;;;;;4953021;29;20083;-61
2022/08/03 04:26:19;;;;;;;11.38;4.50;;;18.10;99.90;;;;;;4967871;28;20042;-61
2022/08/03 04:28:45;;;;;;;12.07;4.72;;;18.20;99.90;;;;;;4953417;29;20047;-61
2022/08/03 04:31:16;;;;;;;13.32;4.70;;;18.20;99.90;;;;;;4953087;29;20043;-61
2022/08/03 04:33:45;;;;;;;18.70;4.93;;;18.20;99.90;;;;;;4952808;29;20078;-61
2022/08/03 04:36:16;;;;;;;11.18;4.55;;;18.30;99.90;;;;;;4952864;29;20046;-61
2022/08/03 04:39:05;;;;;;;9.52;4.30;;;18.10;99.90;;;;;;4954748;28;20040;-61
2022/08/03 04:41:32;;;;;;;13.65;4.20;;;18.40;99.90;;;;;;4956912;29;20039;-61
2022/08/03 04:44:00;;;;;;;12.77;4.20;;;18.40;99.90;;;;;;4956712;29;20054;-61
2022/08/03 04:46:30;;;;;;;10.95;4.10;;;18.40;99.90;;;;;;4956801;29;20443;-61
2022/08/03 04:48:57;;;;;;;12.10;4.47;;;18.50;99.90;;;;;;4956484;29;20555;-60
2022/08/03 04:51:23;;;;;;;12.32;4.10;;;18.60;99.90;;;;;;4956823;29;20043;-61
2022/08/03 04:53:49;;;;;;;11.65;4.15;;;18.70;99.90;;;;;;4956907;29;20460;-61
2022/08/03 04:56:15;;;;;;;15.75;4.63;;;18.90;99.90;;;;;;4956512;29;20174;-61
2022/08/03 04:58:41;;;;;;;9.88;4.40;;;19.40;99.90;;;;;;4956273;29;20133;-62
2022/08/03 05:01:06;;;;;;;15.73;4.22;;;20.10;99.90;;;;;;4954860;29;20130;-62
2022/08/03 05:03:32;;;;;;;12.75;4.13;;;21.00;99.90;;;;;;4956647;29;20035;-62
2022/08/03 05:05:59;;;;;;;12.23;3.88;;;22.20;99.90;;;;;;4956413;29;20050;-62
2022/08/03 05:08:25;;;;;;;12.88;3.70;;;23.30;99.90;;;;;;4956502;28;20079;-62
2022/08/03 05:10:51;;;;;;;13.57;3.78;;;22.70;99.90;;;;;;4956165;29;20075;-63
2022/08/03 05:13:16;;;;;;;9.57;3.67;;;23.10;99.90;;;;;;4956082;29;20464;-60
2022/08/03 05:15:42;;;;;;;13.43;4.13;;;23.60;99.90;;;;;;4956436;28;20106;-60
2022/08/03 05:18:08;;;;;;;10.18;3.50;;;24.30;99.90;;;;;;4954851;29;20126;-60
2022/08/03 05:20:34;;;;;;;9.35;3.22;;;25.00;99.90;;;;;;4938823;29;20134;-60
2022/08/03 05:23:00;;;;;;;15.60;3.72;;;25.50;99.90;;;;;;4956343;29;20073;-60
2022/08/03 05:25:26;;;;;;;12.13;3.20;;;26.20;99.90;;;;;;4956431;29;20050;-61
2022/08/03 05:27:54;;;;;;;13.38;3.63;;;27.70;99.90;;;;;;4956194;29;20126;-61
2022/08/03 05:30:19;;;;;;;13.38;3.40;;;27.70;99.90;;;;;;4955919;29;20106;-61
2022/08/03 05:32:45;;;;;;;13.68;3.65;;;28.30;99.90;;;;;;4955785;29;20043;-62
2022/08/03 05:35:11;;;;;;;13.30;3.00;;;28.80;99.90;;;;;;4956281;29;20074;-61
2022/08/03 05:37:38;;;;;;;14.73;3.30;;;29.40;99.90;;;;;;4954609;29;20098;-61
2022/08/03 05:40:04;;;;;;;10.50;3.47;;;29.90;99.90;;;;;;4955824;29;20043;-62
2022/08/03 05:42:30;;;;;;;11.20;3.10;;;30.00;97.10;;;;;;4955452;29;20051;-62
2022/08/03 05:44:56;;;;;;;10.50;3.42;;;30.00;96.20;;;;;;4956051;29;20050;-61
2022/08/03 05:47:21;;;;;;;19.48;3.28;;;29.80;95.90;;;;;;4955735;29;20040;-61
2022/08/03 05:49:47;;;;;;;11.80;3.03;;;30.00;95.30;;;;;;4954930;28;20079;-61
2022/08/03 05:52:13;;;;;;;10.77;2.90;;;30.30;93.90;;;;;;4955450;29;20089;-62
2022/08/03 05:54:38;;;;;;;12.43;3.20;;;30.80;92.50;;;;;;4955480;29;20050;-62
2022/08/03 05:57:04;;;;;;;10.05;3.13;;;31.20;90.60;;;;;;4955438;29;20129;-61
2022/08/03 05:59:30;;;;;;;10.98;2.97;;;31.60;87.60;;;;;;4954185;29;20043;-62
2022/08/03 06:01:59;;;;;;;16.02;3.50;;;31.80;85.70;;;;;;4955092;29;20055;-62
2022/08/03 06:04:24;;;;;;;12.50;3.47;;;32.00;82.70;;;;;;4955346;29;20054;-62
2022/08/03 06:06:50;;;;;;;9.20;3.60;;;32.30;80.00;;;;;;4955809;29;20348;-61
2022/08/03 06:09:16;;;;;;;12.77;3.55;;;32.40;78.20;;;;;;4953855;29;20046;-63
2022/08/03 06:11:42;;;;;;;11.93;3.90;;;32.50;76.90;;;;;;4954961;29;20480;-62
2022/08/03 06:14:08;;;;;;;12.55;3.63;;;32.40;75.70;;;;;;4955188;29;20050;-62
2022/08/03 06:16:34;;;;;;;13.57;3.45;;;32.40;74.90;;;;;;4954073;29;20110;-62
2022/08/03 06:19:07;;;;;;;13.05;3.50;;;32.40;75.20;;;;;;4955055;29;20126;-62
2022/08/03 06:21:33;;;;;;;14.70;3.90;;;32.40;74.20;;;;;;4954891;29;20106;-62
2022/08/03 06:23:58;;;;;;;14.10;3.70;;;32.70;72.50;;;;;;4954790;29;20031;-62
2022/08/03 06:26:26;;;;;;;10.50;3.40;;;32.80;71.50;;;;;;4955278;29;20055;-62
2022/08/03 06:28:52;;;;;;;10.50;3.30;;;32.70;71.00;;;;;;4955456;29;20114;-62
2022/08/03 06:31:17;;;;;;;15.30;3.88;;;32.40;71.10;;;;;;4954813;29;20433;-62
2022/08/03 06:33:43;;;;;;;15.18;3.60;;;32.20;71.20;;;;;;4954539;29;20051;-62
2022/08/03 06:36:09;;;;;;;17.30;3.70;;;32.00;71.40;;;;;;4954969;29;20074;-62
2022/08/03 06:38:34;;;;;;;11.95;3.20;;;31.90;71.60;;;;;;4954543;29;20039;-62
2022/08/03 06:41:00;;;;;;;13.18;3.47;;;31.80;71.50;;;;;;4954761;29;20043;-62
2022/08/03 06:43:26;;;;;;;14.70;3.40;;;31.50;72.70;;;;;;4954693;29;20375;-62
2022/08/03 06:45:52;;;;;;;17.30;3.72;;;31.60;72.20;;;;;;4954693;29;20138;-63
2022/08/03 06:48:17;;;;;;;13.85;3.83;;;33.00;76.70;;;;;;4954629;29;20125;-63
2022/08/03 06:50:43;;;;;;;14.13;3.35;;;32.90;67.90;;;;;;4954245;29;20058;-63
2022/08/03 06:53:09;;;;;;;15.65;3.75;;;33.60;65.70;;;;;;4954113;29;20043;-67
2022/08/03 06:55:36;;;;;;;13.93;4.00;;;33.70;64.40;;;;;;4953032;29;20110;-62
2022/08/03 06:58:02;;;;;;;19.27;3.35;;;33.70;63.90;;;;;;4954640;29;20031;-67
2022/08/03 07:00:28;;;;;;;14.18;3.50;;;33.60;63.90;;;;;;4953072;28;20046;-62
2022/08/03 07:02:53;;;;;;;15.27;3.20;;;33.60;63.10;;;;;;4954040;29;20063;-64
2022/08/03 07:05:19;;;;;;;13.95;3.65;;;33.30;63.00;;;;;;4937268;29;20070;-63
2022/08/03 07:07:45;;;;;;;18.98;3.72;;;32.90;63.80;;;;;;4954556;29;20130;-63
2022/08/03 07:10:11;;;;;;;19.73;3.78;;;32.70;64.80;;;;;;4936887;29;20178;-63
2022/08/03 07:12:38;;;;;;;18.52;3.45;;;32.20;71.30;;;;;;4954082;29;20039;-64
2022/08/03 07:15:08;;;;;;;15.13;3.13;;;32.80;64.30;;;;;;4967529;28;20443;-62
2022/08/03 07:17:35;;;;;;;18.48;3.92;;;30.20;62.50;;;;;;4965809;28;20116;-65
2022/08/03 07:20:04;;;;;;;15.93;3.45;;;32.80;64.00;;;;;;4972102;28;20094;-62
2022/08/03 07:22:30;;;;;;;11.18;3.40;;;33.10;63.60;;;;;;4972095;28;20431;-63
2022/08/03 07:24:57;;;;;;;14.63;3.75;;;33.40;62.80;;;;;;4972665;28;20035;-64
2022/08/03 07:27:23;;;;;;;18.33;3.67;;;33.50;62.30;;;;;;4972312;28;20030;-63
2022/08/03 07:29:48;;;;;;;13.73;3.40;;;33.20;62.90;;;;;;4972175;28;20488;-63
2022/08/03 07:32:14;;;;;;;18.70;3.88;;;32.90;64.30;;;;;;4971887;28;20292;-63
2022/08/03 07:34:40;;;;;;;19.13;3.55;;;32.30;65.60;;;;;;4972199;28;20041;-63
2022/08/03 07:37:06;;;;;;;11.07;3.50;;;31.80;67.20;;;;;;4972217;28;20115;-62
2022/08/03 07:39:31;;;;;;;15.48;3.75;;;30.50;75.50;;;;;;4971638;28;20147;-63
2022/08/03 07:41:57;;;;;;;19.88;3.45;;;31.00;70.00;;;;;;4954805;28;20051;-63
2022/08/03 07:44:26;;;;;;;30.25;4.50;;;30.80;71.40;;;;;;4939305;28;20127;-64
2022/08/03 07:46:52;;;;;;;16.98;3.25;;;30.80;72.60;;;;;;4972749;28;20078;-63
2022/08/03 07:49:18;;;;;;;13.02;3.67;;;30.80;73.60;;;;;;4972695;28;20085;-63
2022/08/03 07:51:44;;;;;;;17.65;3.70;;;30.70;74.40;;;;;;4972623;28;20044;-62
2022/08/03 07:54:09;;;;;;;18.30;3.58;;;30.70;75.30;;;;;;4972769;28;20041;-62
2022/08/03 07:56:36;;;;;;;12.77;3.30;;;30.80;76.00;;;;;;4955416;28;20693;-62
2022/08/03 07:59:03;;;;;;;20.90;4.03;;;30.90;75.90;;;;;;4955448;28;20463;-68
2022/08/03 08:01:31;;;;;;;20.85;3.47;;;31.00;76.00;;;;;;4972605;28;20113;-62
2022/08/03 08:03:57;;;;;;;20.25;4.20;;;31.20;75.60;;;;;;4955155;28;20049;-63
2022/08/03 08:06:23;;;;;;;13.80;3.85;;;31.20;74.30;;;;;;4972744;28;20039;-63
2022/08/03 08:08:49;;;;;;;16.58;3.80;;;31.00;74.10;;;;;;4955264;28;20134;-63
2022/08/03 08:11:14;;;;;;;12.00;3.42;;;30.80;74.60;;;;;;4972406;28;20043;-60
2022/08/03 08:13:40;;;;;;;14.57;3.58;;;31.20;81.90;;;;;;4972286;28;20066;-60
2022/08/03 08:16:06;;;;;;;17.05;3.70;;;31.00;75.60;;;;;;4972458;28;20035;-60
2022/08/03 08:18:33;;;;;;;20.80;3.92;;;31.60;81.70;;;;;;4972529;28;20138;-61
2022/08/03 08:21:00;;;;;;;15.90;3.95;;;31.50;75.30;;;;;;4955199;28;20100;-60
2022/08/03 08:23:26;;;;;;;16.98;4.00;;;31.40;75.20;;;;;;4955339;28;20053;-60
2022/08/03 08:25:52;;;;;;;18.83;3.70;;;31.30;75.80;;;;;;4971925;28;20483;-60
2022/08/03 08:28:19;;;;;;;21.58;4.10;;;31.40;77.00;;;;;;4972789;28;20125;-60
2022/08/03 08:30:45;;;;;;;19.08;3.85;;;31.40;76.70;;;;;;4972637;28;20506;-63
2022/08/03 08:33:11;;;;;;;20.05;3.60;;;31.20;76.00;;;;;;4972148;28;20031;-63
2022/08/03 08:35:37;;;;;;;20.70;4.10;;;31.30;81.30;;;;;;4972223;28;20495;-64
2022/08/03 08:38:03;;;;;;;15.88;3.58;;;31.40;75.70;;;;;;4972218;28;20083;-64
2022/08/03 08:40:29;;;;;;;20.30;4.28;;;31.30;74.30;;;;;;4972624;28;20035;-64
2022/08/03 08:42:56;;;;;;;23.25;4.30;;;31.30;73.20;;;;;;4972030;28;20050;-64
2022/08/03 08:45:22;;;;;;;26.98;4.65;;;31.20;73.40;;;;;;4971808;28;20123;-64
2022/08/03 08:47:49;;;;;;;23.63;4.53;;;30.40;79.10;;;;;;4970949;28;20117;-60
2022/08/03 08:50:19;;;;;;;24.80;4.20;;;31.00;74.20;;;;;;4970879;28;20094;-60
2022/08/03 08:52:47;;;;;;;21.50;3.95;;;30.80;75.10;;;;;;4971170;28;20043;-60
2022/08/03 08:55:19;;;;;;;25.20;3.90;;;30.70;75.20;;;;;;4954280;28;20054;-60
2022/08/03 08:57:49;;;;;;;21.20;3.95;;;30.70;76.10;;;;;;4971765;28;20043;-61
2022/08/03 09:00:16;;;;;;;27.05;4.15;;;30.70;76.20;;;;;;4972432;28;20505;-60
2022/08/03 09:02:43;;;;;;;20.83;3.97;;;30.80;76.60;;;;;;4954549;28;20142;-60
2022/08/03 09:05:12;;;;;;;26.02;4.22;;;30.80;76.40;;;;;;4972097;28;20088;-60
2022/08/03 09:07:38;;;;;;;21.13;3.72;;;30.80;75.80;;;;;;4971874;28;20451;-60
2022/08/03 09:10:07;;;;;;;27.80;4.32;;;30.60;76.10;;;;;;4972157;28;20121;-60
2022/08/03 09:12:44;;;;;;;15.43;3.95;;;30.60;76.00;;;;;;4971974;28;20209;-60
2022/08/03 09:15:17;;;;;;;22.52;4.05;;;30.70;76.40;;;;;;4970965;28;20061;-60
2022/08/03 09:17:43;;;;;;;20.77;3.95;;;30.80;76.20;;;;;;4972214;28;20054;-61
2022/08/03 09:20:09;;;;;;;18.40;3.83;;;30.80;75.90;;;;;;4971705;28;20043;-60
2022/08/03 09:22:49;;;;;;;24.15;4.00;;;30.80;76.00;;;;;;4971950;28;20045;-61
2022/08/03 09:25:25;;;;;;;19.02;3.92;;;30.80;76.50;;;;;;4973198;28;20109;-60
2022/08/03 09:27:51;;;;;;;17.90;3.78;;;30.80;76.60;;;;;;4975461;28;20043;-59
2022/08/03 09:30:17;;;;;;;19.80;3.35;;;30.80;75.80;;;;;;4975341;28;20035;-60
2022/08/03 09:32:44;;;;;;;15.73;3.65;;;30.80;76.40;;;;;;4975188;28;20038;-60
2022/08/03 09:35:13;;;;;;;30.13;4.32;;;30.80;75.70;;;;;;4975386;28;20039;-61
2022/08/03 09:37:40;;;;;;;17.55;3.55;;;30.80;75.20;;;;;;4974853;28;20127;-60
2022/08/03 09:40:08;;;;;;;24.52;4.10;;;30.80;75.60;;;;;;4974981;28;20050;-60
2022/08/03 09:42:36;;;;;;;27.75;4.35;;;30.70;81.20;;;;;;4975176;28;20427;-62
2022/08/03 09:45:03;;;;;;;24.38;3.95;;;30.70;75.50;;;;;;4974956;28;20121;-60
2022/08/03 09:47:31;;;;;;;18.10;3.30;;;30.70;75.10;;;;;;4974829;28;20066;-60
2022/08/03 09:50:05;;;;;;;18.52;3.63;;;30.70;75.70;;;;;;4974869;28;20097;-60
2022/08/03 09:52:42;;;;;;;16.97;3.97;;;30.80;75.60;;;;;;4957569;28;20047;-63
2022/08/03 09:55:09;;;;;;;18.10;3.70;;;30.80;75.00;;;;;;4975012;28;20046;-64
2022/08/03 09:57:35;;;;;;;19.40;3.70;;;30.80;74.40;;;;;;4957467;28;20047;-64
2022/08/03 10:00:11;;;;;;;16.50;3.90;;;30.80;74.50;;;;;;4974608;28;20042;-64
2022/08/03 10:02:37;;;;;;;18.08;3.30;;;30.80;73.80;;;;;;4974273;28;20109;-64
2022/08/03 10:05:04;;;;;;;20.88;3.70;;;30.80;74.80;;;;;;4974468;28;20070;-64
2022/08/03 10:07:47;;;;;;;20.58;3.88;;;30.90;74.90;;;;;;4974912;28;20078;-65
2022/08/03 10:10:14;;;;;;;16.83;3.72;;;30.80;72.50;;;;;;4974515;28;20430;-65
2022/08/03 10:12:41;;;;;;;22.58;3.40;;;30.80;72.20;;;;;;4957062;28;20118;-63
2022/08/03 10:15:09;;;;;;;18.45;3.30;;;30.70;72.30;;;;;;4974193;28;20510;-62
2022/08/03 10:17:35;;;;;;;15.98;3.00;;;30.70;72.70;;;;;;4974569;28;20078;-65
2022/08/03 10:20:03;;;;;;;18.15;3.53;;;30.70;72.60;;;;;;4974708;28;20049;-60
2022/08/03 10:22:32;;;;;;;23.17;3.50;;;30.80;72.50;;;;;;4974211;28;20034;-62
2022/08/03 10:25:10;;;;;;;21.02;3.50;;;30.90;72.90;;;;;;4956750;28;20113;-59
2022/08/03 10:27:39;;;;;;;23.38;3.95;;;30.80;71.60;;;;;;4974198;28;20208;-59
2022/08/03 10:30:07;;;;;;;25.23;3.40;;;30.90;72.40;;;;;;4956927;28;20061;-59
2022/08/03 10:32:42;;;;;;;20.63;3.67;;;30.90;71.60;;;;;;4956585;28;20043;-59
2022/08/03 10:35:14;;;;;;;24.63;4.22;;;30.90;71.50;;;;;;4974108;28;20149;-59
2022/08/03 10:37:45;;;;;;;14.88;3.33;;;31.00;70.60;;;;;;4956242;28;20042;-59
2022/08/03 10:40:18;;;;;;;20.27;3.78;;;30.90;69.20;;;;;;4973781;28;20038;-62
2022/08/03 10:42:45;;;;;;;19.03;3.80;;;30.90;68.90;;;;;;4974101;28;20487;-59
2022/08/03 10:45:18;;;;;;;18.90;3.90;;;30.90;70.10;;;;;;4973767;28;20666;-59
2022/08/03 10:47:48;;;;;;;19.33;3.75;;;31.00;68.60;;;;;;4973915;28;20394;-59
2022/08/03 10:50:14;;;;;;;22.10;3.88;;;30.90;67.90;;;;;;4973723;28;20122;-60
2022/08/03 10:53:00;;;;;;;20.92;3.80;;;31.00;68.30;;;;;;4973737;28;20399;-59
2022/08/03 10:58:37;;;;;;;30.73;4.32;;;30.90;66.20;;;;;;4973957;28;20489;-60
2022/08/03 11:01:09;;;;;;;23.50;3.80;;;30.90;66.10;;;;;;4973278;28;20078;-61
2022/08/03 11:03:58;;;;;;;27.90;3.50;;;30.90;65.60;;;;;;4973538;28;20062;-60
2022/08/03 11:06:27;;;;;;;22.13;3.67;;;31.00;67.10;;;;;;4930834;28;20058;-61
2022/08/03 11:09:12;;;;;;;25.33;3.67;;;31.00;66.30;;;;;;4973427;28;20065;-60
2022/08/03 11:11:42;;;;;;;27.95;3.95;;;31.00;66.20;;;;;;4973521;28;20499;-60
2022/08/03 11:14:09;;;;;;;32.10;4.50;;;31.10;66.20;;;;;;4973393;28;20129;-60
2022/08/03 11:16:35;;;;;;;30.63;4.50;;;31.20;66.80;;;;;;4972210;28;20050;-61
2022/08/03 11:19:04;;;;;;;23.52;4.00;;;33.60;68.60;;;;;;4973484;28;20495;-60
2022/08/03 11:21:51;;;;;;;18.08;3.50;;;31.30;65.20;;;;;;4955961;28;20054;-60
2022/08/03 11:24:35;;;;;;;23.38;3.38;;;31.40;64.40;;;;;;4973538;28;20046;-60
2022/08/03 11:27:21;;;;;;;21.55;4.07;;;31.40;63.90;;;;;;4973270;28;20047;-60
2022/08/03 11:30:13;;;;;;;27.13;4.18;;;31.40;64.40;;;;;;4973209;28;20043;-64
2022/08/03 11:32:39;;;;;;;26.00;4.00;;;31.40;64.70;;;;;;4973360;28;20530;-65
2022/08/03 11:35:32;;;;;;;22.13;3.40;;;31.40;64.70;;;;;;4973270;28;20074;-66
2022/08/03 11:38:01;;;;;;;19.92;3.90;;;31.40;64.20;;;;;;4939508;28;20054;-65
2022/08/03 11:40:46;;;;;;;21.05;3.63;;;31.40;63.70;;;;;;4955853;28;20050;-65
2022/08/03 11:43:21;;;;;;;;;;;31.60;64.20;;;;;;4973380;28;20049;-65
2022/08/03 11:45:57;;;;;;;22.23;3.83;;;31.60;64.90;;;;;;4973130;28;19922;-65
2022/08/03 11:48:27;;;;;;;19.27;3.47;;;31.60;64.70;;;;;;4954803;28;20504;-64
2022/08/03 11:50:52;;;;;;;22.55;3.30;;;31.70;64.80;;;;;;4972589;28;20440;-64
2022/08/03 11:53:19;;;;;;;18.30;3.15;;;31.70;63.30;;;;;;4972812;28;20081;-64
2022/08/03 11:55:49;;;;;;;18.23;3.55;;;31.80;63.70;;;;;;4955310;28;20339;-64
2022/08/03 11:58:19;;;;;;;18.42;3.40;;;31.80;63.50;;;;;;4955391;28;20381;-65
2022/08/03 12:00:45;;;;;;;17.33;3.78;;;31.90;63.00;;;;;;4973000;28;20050;-65
2022/08/03 12:03:13;;;;;;;23.10;3.40;;;32.00;63.30;;;;;;4972759;28;20410;-64
2022/08/03 12:05:52;;;;;;;18.98;3.38;;;32.10;61.60;;;;;;4972992;28;20050;-65
2022/08/03 12:08:39;;;;;;;20.35;3.83;;;32.10;61.20;;;;;;4955185;28;20139;-65
2022/08/03 12:11:07;;;;;;;19.85;3.33;;;32.00;61.20;;;;;;4973477;28;20051;-60
2022/08/03 12:13:45;;;;;;;22.48;3.58;;;32.00;61.60;;;;;;4955087;28;20162;-62
2022/08/03 12:16:24;;;;;;;27.83;3.85;;;32.20;62.70;;;;;;4972785;28;20038;-69
2022/08/03 12:19:01;;;;;;;22.33;3.83;;;32.30;62.00;;;;;;4955143;28;20582;-66
2022/08/03 12:21:28;;;;;;;20.65;3.63;;;32.40;61.50;;;;;;4955006;28;20042;-67
2022/08/03 12:24:01;;;;;;;20.15;3.70;;;32.40;60.90;;;;;;4972750;28;20510;-66
2022/08/03 12:26:29;;;;;;;25.00;3.83;;;32.40;60.20;;;;;;4972407;28;20089;-65
2022/08/03 12:28:55;;;;;;;21.10;3.70;;;32.40;60.30;;;;;;4972716;28;20039;-65
2022/08/03 12:31:20;;;;;;;20.65;3.63;;;32.30;59.40;;;;;;4972586;28;20090;-65
2022/08/03 12:34:01;;;;;;;20.95;3.70;;;32.10;59.50;;;;;;4972547;28;20051;-66
2022/08/03 12:36:29;;;;;;;19.15;3.50;;;32.10;59.80;;;;;;4972508;28;20097;-66
2022/08/03 12:39:00;;;;;;;21.98;3.80;;;32.10;59.80;;;;;;4972211;28;20035;-66
2022/08/03 12:41:31;;;;;;;23.83;3.75;;;32.10;59.60;;;;;;4972808;28;20046;-66
2022/08/03 12:43:59;;;;;;;27.73;3.78;;;32.20;59.10;;;;;;4971111;28;20086;-60
2022/08/03 12:46:30;;;;;;;18.45;4.03;;;32.40;59.30;;;;;;4970963;28;20097;-61
2022/08/03 12:49:18;;;;;;;18.80;3.10;;;32.70;59.50;;;;;;4971914;28;20038;-60
2022/08/03 12:51:43;;;;;;;19.38;3.50;;;32.70;57.40;;;;;;4972208;28;20057;-62
2022/08/03 12:54:16;;;;;;;19.65;3.70;;;32.80;57.60;;;;;;4972276;28;20430;-60
2022/08/03 12:57:11;;;;;;;22.35;3.40;;;32.90;57.30;;;;;;4972168;28;20071;-60